Mohall, ND (58761)

9:41 PM CDT on May 29, 2015 (GMT -0500)
East End Behind Tesoro | | Change Station
CLOSE
Current Station
Personal Weather Station
Location: Mohall, ND
Elevation: 1631 ft
Nearby Weather Stations
Active Advisory: Frost Advisory

Elev 1631 ft 48.77 °N, 101.50 °W | Updated 9 seconds ago

Clear
Clear
48.8 °F
Feels Like 49 °F
N
3.0
Wind Variable Wind from NNE
Gusts 3.5 mph

Today
High -- | Low -- °F
--% Chance of Precip.
Yesterday
High -- | Low -- °F
Precip. -- in
5:49 AM 9:38 PM
Waxing Gibbous, 87% visible
Pressure 30.32 in
Visibility 10.0 miles
Clouds Clear
Windchill 49 °F
Dew Point 36 °F
Humidity 60%
Rainfall 0.00 in
Snow Depth Not available.
UV 0.0 out of 12
Pollen 8.50 out of 12
Air Quality Not available.
Flu Activity Sporadic
METAR KMIB 300158Z AUTO 01007KT 10SM CLR 12/01 A3028 RMK AO2 SLP267 T01220006 $

More Conditions Fewer Conditions

Pressure 30.32 in
Visibility 10.0 miles
Clouds Clear
Windchill 49 °F
Dew Point 36 °F
Humidity 60%
Rainfall 0.00 in
Snow Depth Not available.
UV 0.0 out of 12
Pollen 8.50 out of 12
Air Quality Not available.
Flu Activity Sporadic
METAR KMIB 300158Z AUTO 01007KT 10SM CLR 12/01 A3028 RMK AO2 SLP267 T01220006 $

More Conditions Fewer Conditions

10-Day Weather Forecast

Almanac

Astronomy

May. 29, 2015 Rise Set
Actual Time
Civil Twilight
Nautical Twilight
Astronomical Twilight
Moon
Length of Visible Light
Length of Day
Tomorrow will be .
, % of the Moon is Illuminated

Today's Extremes

State Highs State Lows

Community

WunderPhotos

Upload Photos

1,825,430 photos uploaded!

WunderBlogs® & News

Nearby

Air Quality

  Air Quality AQ Index Pollutant
Not available.

Snow Depth

Station Depth Elevation

Earthquake Activity

City Distance Mag. Time & Date
Minimum magnitude displayed is 2.5.

Coastal Water Temperatures

Place Temperature

Stations

Nearby Weather Stations

Station Location Temp. Windchill Dew Point Humidity Wind Precip. Elev Updated Type
                   
Frost Advisory
Statement as of 9:27 PM CDT on May 29, 2015

... Frost advisory remains in effect from 2 am CDT /1 am MDT/ to
9 am CDT /8 am MDT/ Saturday...

* temperature... lower to middle 30s.

* Impacts... tender outdoor vegetation may be killed if left
unprotected.

Precautionary/preparedness actions...

A frost advisory means that widespread frost is expected.
Sensitive outdoor plants may be killed if left uncovered.


Waa